Flight Track Log - Related Links

Times and Time Zones

All times are in EDT time to prevent confusion due to time zone crossing. See the CTA400 flight status page for this flight to view local times or setup timezone preferences in your user account.

Time Position Orientation Groundspeed Altitude Reporting Facility
EDT Latitude Longitude Course Direction KTS MPH feet Rate Location/Type
Fri 07:12:22 PM 33.6600 -101.7481 88° East 125 144 5,100  Level Fort Worth Center
Fri 07:13:23 PM 33.6614 -101.7058 88° East 129 148 6,100 992 Climbing Fort Worth Center
Fri 07:14:23 PM 33.6694 -101.6586 78° East 143 165 7,100 942 Climbing Fort Worth Center
Fri 07:15:24 PM 33.6811 -101.6144 72° East 149 171 8,000 836 Climbing Fort Worth Center
Fri 07:16:25 PM 33.6975 -101.5653 68° East 150 173 8,800 645 Climbing Fort Worth Center
Fri 07:17:25 PM 33.7056 -101.5131 79° East 162 186 9,300 450 Climbing Fort Worth Center
Fri 07:18:25 PM 33.7139 -101.4461 81° East 169 194 9,700 150 Climbing Fort Worth Center
Fri 07:19:25 PM 33.7092 -101.3986 97° East 196 226 9,600 -150 Descending Fort Worth Center
Fri 07:20:25 PM 33.7072 -101.3258 92° East 211 243 9,400  Descending Fort Worth Center
Fri 07:21:25 PM 33.7006 -101.2708 98° East 199 229 9,600 50 Climbing Fort Worth Center
Fri 07:22:25 PM 33.6775 -101.2072 114° Southeast 188 216 9,500  Descending Fort Worth Center
Fri 07:23:25 PM 33.6603 -101.1592 113° Southeast 182 209 9,600 50 Climbing Fort Worth Center
Fri 07:24:25 PM 33.6389 -101.1008 114° Southeast 176 203 9,600 50 Level Fort Worth Center
Fri 07:25:25 PM 33.6217 -101.0528 113° Southeast 176 203 9,700  Climbing Fort Worth Center
Fri 07:26:25 PM 33.6067 -100.9922 107° East 171 197 9,600 -50 Descending Fort Worth Center
Fri 07:27:25 PM 33.5933 -100.9444 109° East 171 197 9,600 -50 Level Fort Worth Center
Fri 07:28:25 PM 33.5786 -100.8814 106° East 171 197 9,500 -50 Descending Fort Worth Center
Fri 07:29:25 PM 33.5672 -100.8311 105° East 171 197 9,500 50 Level Fort Worth Center
Fri 07:30:25 PM 33.5544 -100.7658 103° East 171 197 9,600 50 Climbing Fort Worth Center
Fri 07:31:25 PM 33.5433 -100.7131 104° East 171 197 9,600  Level Fort Worth Center
Fri 07:32:25 PM 33.5281 -100.6553 108° East 178 205 9,600  Level Fort Worth Center
Fri 07:33:25 PM 33.5131 -100.5975 107° East 178 205 9,600 -50 Level Fort Worth Center
Fri 07:34:25 PM 33.5039 -100.5422 101° East 178 205 9,500 -50 Descending Fort Worth Center
Fri 07:35:25 PM 33.4992 -100.4847 96° East 173 199 9,500  Level Fort Worth Center
Fri 07:36:25 PM 33.4986 -100.4225 91° East 173 199 9,500 -50 Level Fort Worth Center
Fri 07:37:25 PM 33.5000 -100.3603 88° East 179 206 9,400 50 Descending Fort Worth Center
Fri 07:38:25 PM 33.4950 -100.3028 96° East 179 206 9,600 50 Climbing Fort Worth Center
Fri 07:39:25 PM 33.4922 -100.2456 93° East 179 206 9,500 -50 Descending Fort Worth Center
Fri 07:40:25 PM 33.4872 -100.1856 96° East 179 206 9,500 50 Level Fort Worth Center
Fri 07:41:25 PM 33.4867 -100.1233 91° East 179 206 9,600 50 Climbing Fort Worth Center
Fri 07:42:25 PM 33.4814 -100.0658 96° East 179 206 9,600  Level Fort Worth Center
Fri 07:43:25 PM 33.4764 -100.0058 96° East 179 206 9,600  Level Fort Worth Center
Fri 07:44:25 PM 33.4692 -99.9508 99° East 179 206 9,600  Level Fort Worth Center
Fri 07:45:25 PM 33.4581 -99.8883 102° East 179 206 9,600 -50 Level Fort Worth Center
Fri 07:46:25 PM 33.4550 -99.8311 94° East 179 206 9,500 -50 Descending Fort Worth Center
Fri 07:47:25 PM 33.4519 -99.7661 93° East 179 206 9,500  Level Fort Worth Center
Fri 07:48:25 PM 33.4511 -99.7064 91° East 179 206 9,500  Level Fort Worth Center
Fri 07:49:25 PM 33.4458 -99.6489 96° East 179 206 9,500  Level Fort Worth Center
Fri 07:50:25 PM 33.4428 -99.5892 93° East 179 206 9,500  Level Fort Worth Center
Fri 07:51:25 PM 33.4356 -99.5267 98° East 179 206 9,500  Level Fort Worth Center
Fri 07:52:25 PM 33.4322 -99.4669 94° East 179 206 9,500  Level Fort Worth Center
Fri 07:53:25 PM 33.4269 -99.4072 96° East 179 206 9,500  Level Fort Worth Center
Fri 07:54:25 PM 33.4239 -99.3422 93° East 179 206 9,500  Level Fort Worth Center
Fri 07:55:25 PM 33.4164 -99.2825 99° East 178 205 9,500  Level Fort Worth Center
Fri 07:56:25 PM 33.4089 -99.2250 99° East 178 205 9,500  Level Fort Worth Center
Fri 07:57:25 PM 33.3994 -99.1628 100° East 183 211 9,500 50 Level Fort Worth Center
Fri 07:58:25 PM 33.3917 -99.1028 99° East 177 204 9,600 50 Climbing Fort Worth Center
Fri 07:59:25 PM 33.3861 -99.0481 97° East 182 209 9,600  Level Fort Worth Center
Fri 08:00:25 PM 33.3808 -98.9808 95° East 182 209 9,600 -50 Level Fort Worth Center
Fri 08:01:25 PM 33.3753 -98.9208 96° East 182 209 9,500  Descending Fort Worth Center
Fri 08:02:25 PM 33.3697 -98.8611 96° East 182 209 9,600 50 Climbing Fort Worth Center
Fri 08:03:25 PM 33.3661 -98.8064 95° East 182 209 9,600  Level Fort Worth Center
Fri 08:04:25 PM 33.3564 -98.7489 101° East 182 209 9,600  Level Fort Worth Center
Fri 08:05:25 PM 33.3531 -98.6817 93° East 182 209 9,600  Level Fort Worth Center
Fri 08:06:25 PM 33.3494 -98.6194 94° East 182 209 9,600 -50 Level Fort Worth Center
Fri 08:07:25 PM 33.3436 -98.5597 97° East 182 209 9,500  Descending Fort Worth Center
Fri 08:08:25 PM 33.3378 -98.5050 97° East 182 209 9,600 50 Climbing Fort Worth Center
Fri 08:09:25 PM 33.3300 -98.4453 99° East 182 209 9,600 -50 Level Fort Worth Center
Fri 08:10:25 PM 33.3203 -98.3781 100° East 182 209 9,500 -50 Descending Fort Worth Center
Fri 08:11:25 PM 33.3103 -98.3158 101° East 182 209 9,500 -50 Level Fort Worth Center
Fri 08:12:25 PM 33.3064 -98.2561 94° East 182 209 9,400 -50 Descending Fort Worth Center
Fri 08:13:25 PM 33.2964 -98.2014 102° East 182 209 9,400 50 Level Fort Worth Center
Fri 08:14:25 PM 33.2822 -98.1342 104° East 182 209 9,500  Climbing Fort Worth Center
Fri 08:15:25 PM 33.2719 -98.0844 104° East 182 209 9,400 -350 Descending Fort Worth Center
Fri 08:16:25 PM 33.2556 -98.0147 106° East 189 217 8,800 -650 Descending Fort Worth Center
Fri 08:17:25 PM 33.2414 -97.9575 106° East 189 217 8,100 -950 Descending Fort Worth Center
Fri 08:18:25 PM 33.2122 -97.8903 117° Southeast 199 229 6,900 -1,000 Descending Fort Worth Center
Fri 08:19:25 PM 33.2000 -97.8306 104° East 199 229 6,100 -750 Descending Fort Worth Center
Fri 08:20:25 PM 33.1939 -97.7586 96° East 194 223 5,400 -500 Descending Fort Worth Center
Fri 08:21:25 PM 33.1878 -97.7014 97° East 194 223 5,100 -250 Descending Fort Worth Center
Fri 08:22:25 PM 33.1817 -97.6319 96° East 194 223 4,900 -253 Descending Fort Worth Center
Fri 08:23:00 PM 33.1833 -97.6000 86° East 190 219 4,700 -316 Descending Dallas / Fort Worth TRACON
Fri 08:24:00 PM 33.1667 -97.5333 107° East 190 219 4,400 -238 Descending Dallas / Fort Worth TRACON
Fri 08:25:06 PM 33.1667 -97.4667 90° East 188 216 4,200 -286 Descending Dallas / Fort Worth TRACON
Fri 08:26:06 PM 33.1500 -97.4000 107° East 188 216 3,800 -381 Descending Dallas / Fort Worth TRACON
Fri 08:27:12 PM 33.1500 -97.3333 90° East 190 219 3,400 -350 Descending Dallas / Fort Worth TRACON
Fri 08:28:06 PM 33.1333 -97.2833 112° Southeast 197 227 3,100 -406 Descending Dallas / Fort Worth TRACON
Fri 08:29:25 PM 33.1172 -97.2050 104° East 184 212 2,500 -388 Descending Fort Worth Center
Fri 08:30:25 PM 33.1044 -97.1381 103° East 184 212 2,200 -336 Descending Fort Worth Center
Fri 08:31:12 PM 33.1000 -97.0833 96° East 190 219 1,900 -168 Descending Dallas / Fort Worth TRACON
Fri 08:32:12 PM 33.0833 -97.0167 107° East 179 206 1,900 48 Level Dallas / Fort Worth TRACON
Fri 08:33:18 PM 33.0833 -96.9667 90° East 174 200 2,000 95 Climbing Dallas / Fort Worth TRACON
Fri 08:34:18 PM 33.0500 -96.9167 128° Southeast 170 196 2,100  Climbing Dallas / Fort Worth TRACON
Fri 08:35:18 PM 33.0333 -96.8667 112° Southeast 139 160 2,000 -400 Descending Dallas / Fort Worth TRACON
Fri 08:36:18 PM 33.0000 -96.8500 157° South 114 131 1,300 -700 Descending Dallas / Fort Worth TRACON
Fri 08:38:00 PM 32.9667 -96.8333 121° Southeast  Level FlightAware Approximate
Fri 08:45:00 PM 32.9686 -96.8364 121° Southeast  Level Estimated
Fri 08:46:00 PM 32.9667 -96.8333 121° Southeast  Level FlightAware Approximate
Fri 08:47:00 PM 32.9686 -96.8364 121° Southeast  Level Estimated
Fri 08:48:00 PM 32.9667 -96.8333 121° Southeast  Level FlightAware Approximate
Fri 08:49:00 PM 32.9686 -96.8364 121° Southeast  Level Estimated
Fri 08:50:00 PM 32.9667 -96.8333 121° Southeast  Level FlightAware Approximate
Fri 08:51:00 PM 32.9686 -96.8364 121° Southeast  Level Estimated
Fri 08:52:00 PM 32.9667 -96.8333 121° Southeast  Level FlightAware Approximate
Fri 08:53:00 PM 32.9686 -96.8364 121° Southeast  Level Estimated
Fri 08:54:00 PM 32.9667 -96.8333 121° Southeast  Level FlightAware Approximate
Fri 08:55:00 PM 32.9686 -96.8364 121° Southeast  Level Estimated
Fri 08:56:00 PM 32.9667 -96.8333 121° Southeast  Level FlightAware Approximate
Fri 08:57:00 PM 32.9686 -96.8364 121° Southeast  Level Estimated
Fri 08:58:00 PM 32.9667 -96.8333 121° Southeast  Level FlightAware Approximate
Fri 08:59:00 PM 32.9686 -96.8364 121° Southeast  Level Estimated
Fri 09:00:00 PM 32.9667 -96.8333 121° Southeast  Level FlightAware Approximate
Fri 09:01:00 PM 32.9686 -96.8364 121° Southeast  Level Estimated
Fri 09:02:00 PM 32.9667 -96.8333 121° Southeast  Level FlightAware Approximate
Fri 09:03:00 PM 32.9686 -96.8364 121° Southeast  Level Estimated
Fri 09:04:00 PM 32.9667 -96.8333 121° Southeast  Level FlightAware Approximate
Fri 09:05:00 PM 32.9686 -96.8364 121° Southeast  Level Estimated
Fri 09:06:00 PM 32.9667 -96.8333 121° Southeast  Level FlightAware Approximate
Fri 09:07:00 PM 32.9686 -96.8364 121° Southeast  Level Estimated
Fri 09:08:00 PM 32.9667 -96.8333 121° Southeast  Level FlightAware Approximate
Fri 09:09:00 PM 32.9686 -96.8364 121° Southeast  Level Estimated
Fri 09:10:00 PM 32.9667 -96.8333 121° Southeast  Level FlightAware Approximate
Fri 09:11:00 PM 32.9686 -96.8364 121° Southeast  Level Estimated
Fri 09:12:00 PM 32.9667 -96.8333 121° Southeast  Level FlightAware Approximate
Fri 09:13:00 PM 32.9686 -96.8364 121° Southeast  Level Estimated
Fri 09:14:00 PM 32.9667 -96.8333 121° Southeast  Level FlightAware Approximate
Fri 09:15:00 PM 32.9686 -96.8364 121° Southeast  Level Estimated
Fri 09:16:00 PM 32.9667 -96.8333 121° Southeast  Level FlightAware Approximate
Fri 09:17:00 PM 32.9686 -96.8364 121° Southeast  Level Estimated
Fri 09:18:00 PM 32.9667 -96.8333 121° Southeast  Level FlightAware Approximate
Fri 09:19:00 PM 32.9686 -96.8364 121° Southeast  Level Estimated
Fri 09:20:00 PM 32.9667 -96.8333 121° Southeast  Level FlightAware Approximate
Fri 09:21:00 PM 32.9686 -96.8364 121° Southeast  Level Estimated
Fri 09:22:00 PM 32.9667 -96.8333 121° Southeast  Level FlightAware Approximate
Fri 09:23:00 PM 32.9686 -96.8364 121° Southeast  Level Estimated
Fri 09:24:00 PM 32.9667 -96.8333 121° Southeast  Level FlightAware Approximate
Fri 09:25:00 PM 32.9686 -96.8364 121° Southeast  Level Estimated
Fri 09:26:00 PM 32.9667 -96.8333 121° Southeast  Level FlightAware Approximate
Fri 09:27:00 PM 32.9686 -96.8364 121° Southeast  Level Estimated
Fri 09:28:00 PM 32.9667 -96.8333 121° Southeast  Level FlightAware Approximate
Fri 09:29:00 PM 32.9686 -96.8364 121° Southeast  Level Estimated
Fri 09:30:00 PM 32.9667 -96.8333 121° Southeast  Level FlightAware Approximate
Fri 09:31:00 PM 32.9686 -96.8364 121° Southeast  Level Estimated
Fri 09:32:00 PM 32.9667 -96.8333 121° Southeast  Level FlightAware Approximate

Login

Don't have an account? Register now (free) for customized features, flight alerts, and more!